Buoy 62910

sailwx.info

Track history (hours):
 
Tides and Currents Weather Stations Pressure Air Temp Water Temp Dewpoint Dewpoint Depression Visibility Wind Speed Wind Dir Waves Ship Positions

Drifting buoy 62910

Last reported at 2014-Oct-31 15:07 UTC. Time now 2014-Oct-31 15:46 UTC.
Position N 41°12' E 004°25'.

Water temperature 22.0 ° C

Date/timePositionNaut miles runAvg speedWind from/ knotsBaromVisibWave heightAir tempDewpointWater temp
2014-Oct-31 15:07N 41°12' E 004°25'0 0.0 22.0
2014-Oct-31 13:40N 41°12' E 004°25'0 0.3 22.0
2014-Oct-31 13:26N 41°12' E 004°25'113.0 22.0
2014-Oct-31 13:21N 41°12' E 004°24'1 0.9 22.0
2014-Oct-31 11:51N 41°10' E 004°24'0 2.2 22.1
2014-Oct-31 11:44N 41°10' E 004°24'110.5
2014-Oct-31 11:40N 41°10' E 004°25'0 0.0 22.1
2014-Oct-31 11:03N 41°10' E 004°25'0 0.0 22.2
2014-Oct-31 10:10N 41°10' E 004°25'1 1.0 22.3
2014-Oct-31 09:21N 41°09' E 004°25'1 8.7 22.3
2014-Oct-31 09:17N 41°09' E 004°25'0 0.0 22.3
2014-Oct-31 08:31N 41°09' E 004°25'0 3.0 22.3
2014-Oct-31 08:28N 41°09' E 004°25'1 0.9 22.3
2014-Oct-31 07:24N 41°08' E 004°26'0 0.0 22.3
2014-Oct-31 07:15N 41°08' E 004°26'1 0.5 22.3
2014-Oct-31 05:42N 41°08' E 004°25'0 4.9 22.3
2014-Oct-31 05:36N 41°08' E 004°25'0 0.0 22.3
2014-Oct-31 04:04N 41°08' E 004°25'1 4.7 22.1
2014-Oct-31 03:57N 41°08' E 004°25'0 0.0 22.1
2014-Oct-31 03:54N 41°08' E 004°25'0 1.8 22.1
2014-Oct-31 03:38N 41°08' E 004°25'111.2 22.1
2014-Oct-31 03:33N 41°07' E 004°24'0 0.0 22.1
2014-Oct-31 01:57N 41°07' E 004°24'323.8 22.0
2014-Oct-31 01:50N 41°05' E 004°22'0 0.0 22.0
2014-Oct-31 00:13N 41°05' E 004°22'0 0.0 22.0
2014-Oct-30 21:55N 41°05' E 004°22'115.1 21.9
2014-Oct-30 21:50N 41°05' E 004°20'0 0.0 21.9
2014-Oct-30 21:09N 41°05' E 004°20'1 3.8
2014-Oct-30 20:59N 41°04' E 004°21'0 0.0 22.0
2014-Oct-30 20:13N 41°04' E 004°21'0 4.6 22.1
2014-Oct-30 20:07N 41°04' E 004°20'0 6.8 22.1
2014-Oct-30 20:04N 41°04' E 004°21'2 2.2 22.1
2014-Oct-30 19:18N 41°02' E 004°20'0 0.0 22.2
2014-Oct-30 18:27N 41°02' E 004°20'0 0.3 22.2
2014-Oct-30 17:23N 41°02' E 004°20'0 7.2 22.2
2014-Oct-30 17:20N 41°03' E 004°20'0 0.7 22.2
2014-Oct-30 16:49N 41°02' E 004°20'1 0.8 22.2
2014-Oct-30 15:39N 41°02' E 004°21'0 0.0 22.3
2014-Oct-30 15:37N 41°02' E 004°21'0 4.9 22.3
2014-Oct-30 15:32N 41°01' E 004°20'0 0.0 22.3
2014-Oct-30 15:18N 41°01' E 004°20'0 0.4 22.3
2014-Oct-30 14:00N 41°01' E 004°20'117.7 22.4
2014-Oct-30 13:58N 41°01' E 004°19'1 5.0 22.4
2014-Oct-30 13:51N 41°01' E 004°20'0 0.0 22.4
2014-Oct-30 13:39N 41°01' E 004°20'1 9.0 22.4
2014-Oct-30 13:32N 41°00' E 004°19'0 0.0 22.4
2014-Oct-30 12:09N 41°00' E 004°19'0 0.0 22.3
2014-Oct-30 11:54N 41°00' E 004°19'0 5.9
2014-Oct-30 11:51N 41°01' E 004°19'1 1.5 22.3
2014-Oct-30 11:21N 41°01' E 004°18'0 0.0 22.2
2014-Oct-30 10:35N 41°01' E 004°18'117.7 22.2
2014-Oct-30 10:31N 41°00' E 004°17'0 0.0 22.2
2014-Oct-30 09:47N 41°00' E 004°17'0 3.0 22.1
2014-Oct-30 09:44N 41°00' E 004°17'0 0.4 22.1
2014-Oct-30 08:54N 41°00' E 004°16'0 1.3 22.0
2014-Oct-30 08:49N 41°00' E 004°17'3 2.4 22.0
2014-Oct-30 07:37N 40°58' E 004°13'0 0.0 22.0
2014-Oct-30 06:19N 40°58' E 004°13'0 1.4 22.0
2014-Oct-30 06:01N 40°58' E 004°13'2 7.6 22.0
2014-Oct-30 05:49N 40°57' E 004°12'0 0.0 22.0
2014-Oct-30 05:43N 40°57' E 004°12'1 0.5 22.0
2014-Oct-30 04:20N 40°57' E 004°11'0 2.7 21.9
2014-Oct-30 04:10N 40°57' E 004°11'1 1.3 21.9
2014-Oct-30 03:47N 40°57' E 004°12'3 3.2 21.9
2014-Oct-30 02:56N 40°55' E 004°10'1 1.5 21.9
2014-Oct-30 02:04N 40°54' E 004°09'0 0.0 21.9
2014-Oct-30 00:29N 40°54' E 004°09'0 0.0
2014-Oct-30 00:25N 40°54' E 004°09'2 0.7 22.0
2014-Oct-29 22:16N 40°52' E 004°08'0 0.1 22.2
2014-Oct-29 21:23N 40°52' E 004°08'1 0.7 22.1
2014-Oct-29 20:39N 40°52' E 004°07'0 0.0 22.0
2014-Oct-29 20:36N 40°52' E 004°07'0 0.0 22.0
2014-Oct-29 20:29N 40°52' E 004°07'0 0.0 22.0
2014-Oct-29 20:25N 40°52' E 004°07'1 0.6 22.0
2014-Oct-29 18:59N 40°52' E 004°06'0 0.0 22.2
2014-Oct-29 18:55N 40°52' E 004°06'0 0.0 22.2
2014-Oct-29 17:48N 40°52' E 004°06'2 5.6 22.3
2014-Oct-29 17:30N 40°52' E 004°04'0 0.0 22.3
2014-Oct-29 17:14N 40°52' E 004°04'0 0.0
2014-Oct-29 16:07N 40°52' E 004°04'1 5.3 22.5
2014-Oct-29 15:51N 40°52' E 004°02'0 0.0 22.6
2014-Oct-29 15:44N 40°52' E 004°02'0 0.0 22.7
2014-Oct-29 15:27N 40°52' E 004°02'0 0.0 22.7
2014-Oct-29 14:28N 40°52' E 004°02'0 0.0
2014-Oct-29 14:09N 40°52' E 004°02'0 1.8 22.7
2014-Oct-29 14:05N 40°52' E 004°02'0 1.4 22.7
2014-Oct-29 13:49N 40°52' E 004°02'2 1.1 22.7
2014-Oct-29 12:02N 40°51' E 003°60'0 0.0 22.6
2014-Oct-29 11:44N 40°51' E 003°60'0 0.2 22.6
2014-Oct-29 10:55N 40°50' E 003°60'0 5.4 22.6
2014-Oct-29 10:53N 40°51' E 003°60'0 0.5 22.6
2014-Oct-29 10:02N 40°50' E 003°59'0 0.0 22.6
2014-Oct-29 09:12N 40°50' E 003°59'0 0.3 22.6
2014-Oct-29 08:19N 40°51' E 003°59'0 0.0
2014-Oct-29 06:45N 40°51' E 003°59'0 0.0 22.6
2014-Oct-29 06:30N 40°51' E 003°59'0 2.8
2014-Oct-29 06:26N 40°50' E 003°59'1 2.3 22.7
2014-Oct-29 06:03N 40°49' E 003°59'0 0.9 22.7
2014-Oct-29 06:00N 40°49' E 003°59'0 0.2 22.7
2014-Oct-29 05:07N 40°50' E 003°59'0 0.9 22.7
2014-Oct-29 04:45N 40°50' E 003°59'0 0.8 22.7
2014-Oct-29 04:21N 40°50' E 003°60'1 1.6 22.7
2014-Oct-29 03:58N 40°50' E 004°00'2 3.6 22.7
2014-Oct-29 03:28N 40°50' E 003°58'0 0.0 22.7
2014-Oct-29 02:36N 40°50' E 003°58'0 0.0 22.7
2014-Oct-29 02:19N 40°50' E 003°58'0 4.7 22.7
2014-Oct-29 02:13N 40°51' E 003°58'0 0.0 22.7
2014-Oct-29 00:38N 40°51' E 003°58'1 0.4 22.7
2014-Oct-28 22:36N 40°51' E 003°57'0 0.3 22.7
2014-Oct-28 21:50N 40°51' E 003°57'1 3.8 22.7
2014-Oct-28 21:41N 40°51' E 003°56'0 0.0 22.7
2014-Oct-28 20:59N 40°51' E 003°56'0 0.0 22.7
2014-Oct-28 20:50N 40°51' E 003°56'0 0.0 22.7
2014-Oct-28 20:06N 40°51' E 003°56'1 7.8 22.7
2014-Oct-28 20:01N 40°52' E 003°55'0 0.0 22.7
2014-Oct-28 19:29N 40°52' E 003°55'1 3.9 22.7
2014-Oct-28 19:15N 40°52' E 003°55'0 2.9 22.7
2014-Oct-28 19:09N 40°53' E 003°55'0 0.0 22.7
2014-Oct-28 18:09N 40°53' E 003°55'113.3 22.7
2014-Oct-28 18:06N 40°52' E 003°55'0 2.2 22.7
2014-Oct-28 17:53N 40°52' E 003°54'1 2.6 22.7
2014-Oct-28 17:41N 40°52' E 003°54'0 0.0 22.7
2014-Oct-28 16:34N 40°52' E 003°54'0 0.0 22.7
2014-Oct-28 16:00N 40°52' E 003°54'1 0.6 22.7
2014-Oct-28 14:51N 40°51' E 003°53'1 2.1 22.8
2014-Oct-28 14:20N 40°51' E 003°52'0 0.0 22.8
2014-Oct-28 14:14N 40°51' E 003°52'0 0.3 22.8
2014-Oct-28 14:00N 40°51' E 003°52'0 0.3 22.8
2014-Oct-28 12:18N 40°51' E 003°53'0 3.2 22.7
2014-Oct-28 12:11N 40°51' E 003°52'0 0.0 22.7
2014-Oct-28 11:12N 40°51' E 003°52'0 0.3 22.7
2014-Oct-28 10:25N 40°52' E 003°52'0 0.0 22.7
2014-Oct-28 09:33N 40°52' E 003°52'0 0.5 22.6
2014-Oct-28 08:46N 40°52' E 003°52'0 0.0 22.6
2014-Oct-28 08:39N 40°52' E 003°52'0 0.0 22.7
2014-Oct-28 07:49N 40°52' E 003°52'0 0.0 22.6
2014-Oct-28 07:16N 40°52' E 003°52'0 0.0 22.6
2014-Oct-28 06:53N 40°52' E 003°52'0 3.8 22.6
2014-Oct-28 06:49N 40°52' E 003°52'0 0.2 22.6
2014-Oct-28 06:12N 40°52' E 003°52'0 1.3 22.6
2014-Oct-28 06:07N 40°52' E 003°52'0 0.0 22.6
2014-Oct-28 05:37N 40°52' E 003°52'0 0.0 22.6
2014-Oct-28 05:08N 40°52' E 003°52'1 1.0 22.6
2014-Oct-28 04:28N 40°52' E 003°51'0 5.6 22.6
2014-Oct-28 04:24N 40°52' E 003°51'0 0.5 22.6
2014-Oct-28 04:08N 40°52' E 003°51'1 4.6 22.7
2014-Oct-28 04:00N 40°52' E 003°50'0 0.0 22.6
2014-Oct-28 03:26N 40°52' E 003°50'0 0.0 22.7
2014-Oct-28 02:45N 40°52' E 003°50'0 0.0 22.7
2014-Oct-28 02:33N 40°52' E 003°50'0 2.7 22.7
2014-Oct-28 02:29N 40°52' E 003°50'2 1.3 22.7
2014-Oct-28 00:49N 40°51' E 003°48'0 0.0 22.7
2014-Oct-27 22:56N 40°51' E 003°48'0 0.0 22.7
2014-Oct-27 22:03N 40°51' E 003°48'0 0.0 22.7
2014-Oct-27 21:19N 40°51' E 003°48'0 1.3 22.7
2014-Oct-27 21:08N 40°51' E 003°48'0 0.0 22.7
2014-Oct-27 20:24N 40°51' E 003°48'0 0.0 22.7
2014-Oct-27 20:18N 40°51' E 003°48'0 0.2 22.7
2014-Oct-27 19:59N 40°51' E 003°48'0 1.2 22.7
2014-Oct-27 19:34N 40°51' E 003°47'1 8.7 22.7
2014-Oct-27 19:29N 40°50' E 003°48'0 0.0 22.7
2014-Oct-27 18:36N 40°50' E 003°48'0 0.0 22.7
2014-Oct-27 18:22N 40°50' E 003°48'0 0.0 22.7
2014-Oct-27 17:52N 40°50' E 003°48'0 0.4 22.7
2014-Oct-27 16:57N 40°50' E 003°48'122.9 22.7
2014-Oct-27 16:55N 40°51' E 003°47'1 0.9 22.7
2014-Oct-27 16:09N 40°50' E 003°48'0 0.1 22.7
2014-Oct-27 15:18N 40°50' E 003°48'0 0.4 22.7
2014-Oct-27 14:29N 40°50' E 003°47'0 2.3
2014-Oct-27 14:25N 40°50' E 003°47'0 0.7 22.8
2014-Oct-27 14:09N 40°50' E 003°48'0 0.2 22.8
2014-Oct-27 12:30N 40°51' E 003°47'0 0.0 22.8
2014-Oct-27 12:27N 40°51' E 003°47'0 0.4 22.8
2014-Oct-27 11:34N 40°51' E 003°47'0 0.5 22.8
2014-Oct-27 10:46N 40°51' E 003°46'0 0.0 22.8
2014-Oct-27 10:39N 40°51' E 003°46'0 0.0 22.8
2014-Oct-27 09:57N 40°51' E 003°46'0 0.5 22.7
2014-Oct-27 09:02N 40°51' E 003°46'1 0.6 22.7
2014-Oct-27 08:09N 40°51' E 003°45'0 0.0 22.7
2014-Oct-27 07:16N 40°51' E 003°45'1 6.6 22.7
2014-Oct-27 07:09N 40°51' E 003°45'0 0.0 22.7
2014-Oct-27 06:23N 40°51' E 003°45'0 0.0 22.7
2014-Oct-27 06:19N 40°51' E 003°45'0 0.0 22.7
2014-Oct-27 06:12N 40°51' E 003°45'1 0.9 22.6
2014-Oct-27 05:32N 40°50' E 003°45'0 0.0 22.6
2014-Oct-27 04:47N 40°50' E 003°45'0 0.0 22.6
2014-Oct-27 04:44N 40°50' E 003°45'1 3.1 22.6
2014-Oct-27 04:32N 40°50' E 003°44'0 0.7 22.6
2014-Oct-27 04:19N 40°50' E 003°44'0 0.1 22.6
2014-Oct-27 03:01N 40°50' E 003°44'1 2.3 22.5
2014-Oct-27 02:47N 40°50' E 003°45'0 0.0 22.5
2014-Oct-27 02:42N 40°50' E 003°45'1 5.2 22.5
2014-Oct-27 02:33N 40°49' E 003°45'0 0.0 22.5
2014-Oct-27 01:00N 40°49' E 003°45'1 0.4 22.5
2014-Oct-26 22:24N 40°49' E 003°46'1 1.4 22.5
2014-Oct-26 21:33N 40°50' E 003°47'0 0.0 22.6
2014-Oct-26 20:45N 40°50' E 003°47'0 0.0 22.6
2014-Oct-26 20:40N 40°50' E 003°47'0 0.0 22.6
2014-Oct-26 20:27N 40°50' E 003°47'0 0.0 22.6
2014-Oct-26 19:56N 40°50' E 003°47'111.8 22.6
2014-Oct-26 19:49N 40°49' E 003°48'0 0.0 22.6
2014-Oct-26 19:10N 40°49' E 003°48'0 0.0 22.7
2014-Oct-26 18:54N 40°49' E 003°48'0 0.0 22.7
2014-Oct-26 18:50N 40°49' E 003°48'1 1.0 22.7
2014-Oct-26 18:15N 40°49' E 003°47'0 0.0 22.7
2014-Oct-26 17:24N 40°49' E 003°47'142.4 22.8
2014-Oct-26 17:22N 40°50' E 003°45'0 0.0 22.8
2014-Oct-26 17:11N 40°50' E 003°45'1 1.5 22.8
2014-Oct-26 16:24N 40°50' E 003°47'0 0.6 22.8
2014-Oct-26 15:41N 40°50' E 003°46'0 0.4 22.9
2014-Oct-26 14:39N 40°50' E 003°46'0 1.4 22.9
2014-Oct-26 14:20N 40°50' E 003°46'1 0.7 22.9
2014-Oct-26 12:45N 40°50' E 003°45'0 0.0 22.7
2014-Oct-26 12:43N 40°50' E 003°45'0 0.5 22.7
2014-Oct-26 11:53N 40°50' E 003°44'1 1.3 22.7
2014-Oct-26 11:07N 40°49' E 003°44'0 0.0 22.6
2014-Oct-26 10:59N 40°49' E 003°44'0 0.0 22.6
2014-Oct-26 10:55N 40°49' E 003°44'0 0.0 22.6
2014-Oct-26 10:18N 40°49' E 003°44'0 0.0 22.6
2014-Oct-26 10:14N 40°49' E 003°44'0 0.2 22.6
2014-Oct-26 09:27N 40°49' E 003°45'0 0.0 22.6
2014-Oct-26 09:23N 40°49' E 003°45'0 0.0 22.6
2014-Oct-26 09:18N 40°49' E 003°45'0 0.0 22.6
2014-Oct-26 08:37N 40°49' E 003°45'0 1.3 22.6
2014-Oct-26 08:32N 40°49' E 003°45'1 0.7 22.6
2014-Oct-26 06:32N 40°48' E 003°46'0 0.0 22.6
2014-Oct-26 06:04N 40°48' E 003°46'0 1.4 22.6
2014-Oct-26 06:00N 40°48' E 003°46'0 0.5 22.6
2014-Oct-26 05:00N 40°47' E 003°46'1 4.4 22.6
2014-Oct-26 04:53N 40°47' E 003°47'1 6.9 22.6
2014-Oct-26 04:48N 40°47' E 003°48'0 0.6 22.6
2014-Oct-26 04:30N 40°47' E 003°48'0 0.0 22.7
2014-Oct-26 04:19N 40°47' E 003°48'1 0.6 22.7
2014-Oct-26 03:23N 40°47' E 003°48'0 0.0
2014-Oct-26 03:16N 40°47' E 003°48'0 4.3 22.8
2014-Oct-26 03:10N 40°48' E 003°48'0 1.2 22.8
2014-Oct-26 02:56N 40°47' E 003°48'0 0.0 22.8
2014-Oct-26 02:53N 40°47' E 003°48'1 0.5 22.8
2014-Oct-26 01:16N 40°48' E 003°49'0 0.0 22.9
2014-Oct-26 01:12N 40°48' E 003°49'1 0.5 22.9
2014-Oct-25 22:45N 40°49' E 003°50'0 0.0 22.9
2014-Oct-25 22:00N 40°49' E 003°50'1 4.0 22.9
2014-Oct-25 21:52N 40°49' E 003°49'0 0.0 22.9
2014-Oct-25 21:49N 40°49' E 003°49'0 0.0 22.9
2014-Oct-25 21:12N 40°49' E 003°49'0 0.0 22.9
2014-Oct-25 21:03N 40°49' E 003°49'0 0.0 22.9
2014-Oct-25 20:19N 40°49' E 003°49'0 0.7 22.8
2014-Oct-25 20:08N 40°49' E 003°49'0 0.0 22.8
2014-Oct-25 19:29N 40°49' E 003°49'0 0.9 22.8
2014-Oct-25 19:24N 40°49' E 003°49'1 0.7 22.8
2014-Oct-25 18:33N 40°49' E 003°48'0 0.0
2014-Oct-25 17:47N 40°49' E 003°48'0 2.7
2014-Oct-25 17:43N 40°49' E 003°48'0 0.3 22.7
2014-Oct-25 16:36N 40°49' E 003°48'0 3.0 22.7
2014-Oct-25 16:33N 40°49' E 003°48'1 2.4 22.7
2014-Oct-25 16:04N 40°48' E 003°47'1 0.6 22.8
2014-Oct-25 14:56N 40°47' E 003°47'0 0.3 23.0
2014-Oct-25 14:34N 40°47' E 003°47'1 0.7 23.0
2014-Oct-25 12:55N 40°46' E 003°48'0 0.0 23.0
2014-Oct-25 12:48N 40°46' E 003°48'2 3.1 23.0
2014-Oct-25 12:13N 40°45' E 003°49'0 0.0 22.9
2014-Oct-25 11:25N 40°45' E 003°49'0 0.0 22.8
2014-Oct-25 11:06N 40°45' E 003°49'0 0.0 22.7
2014-Oct-25 10:36N 40°45' E 003°49'1 1.6 22.7
2014-Oct-25 09:46N 40°45' E 003°51'0 0.0 22.7
2014-Oct-25 09:39N 40°45' E 003°51'0 0.0 22.6
2014-Oct-25 08:53N 40°45' E 003°51'1 0.5 22.6
2014-Oct-25 07:14N 40°45' E 003°52'1 1.3 22.6
2014-Oct-25 06:44N 40°45' E 003°53'0 0.5 22.6
2014-Oct-25 06:27N 40°45' E 003°52'0 0.0 22.6
2014-Oct-25 06:23N 40°45' E 003°52'1 0.9 22.6
2014-Oct-25 05:32N 40°46' E 003°52'0 0.0 22.6
2014-Oct-25 05:09N 40°46' E 003°52'0 0.0 22.6
2014-Oct-25 05:05N 40°46' E 003°52'0 0.8 22.6
2014-Oct-25 04:44N 40°46' E 003°53'111.5 22.7
2014-Oct-25 04:41N 40°47' E 003°53'0 0.0 22.7
2014-Oct-25 03:53N 40°47' E 003°53'0 1.1 22.7
2014-Oct-25 03:28N 40°47' E 003°52'0 4.0
2014-Oct-25 03:25N 40°47' E 003°52'0 1.4 22.7
2014-Oct-25 03:07N 40°47' E 003°53'213.0 22.7
2014-Oct-25 03:00N 40°47' E 003°51'0 0.0 22.7
2014-Oct-25 01:26N 40°47' E 003°51'1 0.2 22.7
2014-Oct-24 22:21N 40°47' E 003°50'538.9 22.7
2014-Oct-24 22:14N 40°42' E 003°51'0 0.0 22.7
2014-Oct-24 21:31N 40°42' E 003°51'0 0.0 22.7
2014-Oct-24 21:23N 40°42' E 003°51'0 0.0 22.7
2014-Oct-24 19:51N 40°42' E 003°51'0 0.0 22.7
2014-Oct-24 19:42N 40°42' E 003°51'0 0.0 22.7
2014-Oct-24 18:56N 40°42' E 003°51'0 0.0 22.7
2014-Oct-24 18:12N 40°42' E 003°51'0 0.0 22.7
2014-Oct-24 16:45N 40°42' E 003°51'0 2.6 22.7
2014-Oct-24 16:36N 40°42' E 003°51'112.8
2014-Oct-24 16:31N 40°42' E 003°53'0 0.0 22.7
2014-Oct-24 15:06N 40°42' E 003°53'1 3.8 22.7
2014-Oct-24 14:49N 40°42' E 003°53'0 2.2
2014-Oct-24 14:45N 40°42' E 003°53'1 0.4 22.7
2014-Oct-24 13:04N 40°43' E 003°54'0 3.3 22.7
2014-Oct-24 12:57N 40°43' E 003°55'1 1.0 22.7
2014-Oct-24 11:43N 40°44' E 003°54'0 0.0 22.7
2014-Oct-24 11:22N 40°44' E 003°54'1 6.0 22.7
2014-Oct-24 11:17N 40°44' E 003°54'0 0.0 22.7
2014-Oct-24 10:52N 40°44' E 003°54'0 0.1 22.7
2014-Oct-24 10:08N 40°44' E 003°54'0 0.0 22.6
2014-Oct-24 10:01N 40°44' E 003°54'2 2.0
2014-Oct-24 09:15N 40°44' E 003°52'0 0.0 22.6
2014-Oct-24 08:24N 40°44' E 003°52'0 0.2 22.6
2014-Oct-24 06:07N 40°43' E 003°53'2 2.1 22.6
2014-Oct-24 05:14N 40°42' E 003°52'0 0.0 22.6
2014-Oct-24 05:06N 40°42' E 003°52'0 0.0 22.6
2014-Oct-24 04:52N 40°42' E 003°52'0 0.0 22.6
2014-Oct-24 04:25N 40°42' E 003°52'1 0.6 22.6
2014-Oct-24 03:34N 40°42' E 003°51'2 4.9 22.6
2014-Oct-24 03:14N 40°41' E 003°53'0 0.0 22.6
2014-Oct-24 03:09N 40°41' E 003°53'0 0.0
2014-Oct-24 01:37N 40°41' E 003°53'0 0.0 22.6
2014-Oct-24 01:34N 40°41' E 003°53'2 0.8 22.6
2014-Oct-23 22:41N 40°38' E 003°54'219.1 22.6
2014-Oct-23 22:35N 40°38' E 003°56'0 0.0 22.6
2014-Oct-23 21:48N 40°38' E 003°56'0 0.0 22.6
2014-Oct-23 20:58N 40°38' E 003°56'0 0.9 22.6
2014-Oct-23 20:53N 40°38' E 003°56'0 0.0 22.6
2014-Oct-23 20:26N 40°38' E 003°56'1 6.3 22.6
2014-Oct-23 20:12N 40°39' E 003°58'0 0.0 22.6
2014-Oct-23 20:03N 40°39' E 003°58'0 0.0 22.6
2014-Oct-23 19:16N 40°39' E 003°58'0 0.0 22.6
2014-Oct-23 19:12N 40°39' E 003°58'0 0.1 22.6
2014-Oct-23 18:46N 40°39' E 003°58'1 3.6 22.6
2014-Oct-23 18:31N 40°39' E 003°58'0 0.0 22.6
2014-Oct-23 17:10N 40°39' E 003°58'2 7.4 22.6
2014-Oct-23 16:54N 40°41' E 003°57'0 0.2 22.6
2014-Oct-23 15:15N 40°41' E 003°57'2 6.7 22.6
2014-Oct-23 14:54N 40°39' E 003°55'0 0.0 22.6
2014-Oct-23 13:31N 40°39' E 003°55'0 0.0 22.6
2014-Oct-23 13:15N 40°39' E 003°55'0 0.0 22.6
2014-Oct-23 11:29N 40°39' E 003°55'3 9.9 22.6
2014-Oct-23 11:13N 40°37' E 003°55'0 0.0 22.6
2014-Oct-23 10:29N 40°37' E 003°55'0 0.0 22.6
2014-Oct-23 09:36N 40°37' E 003°55'0 0.0 22.6
2014-Oct-23 09:33N 40°37' E 003°55'1 1.2 22.6
2014-Oct-23 08:43N 40°36' E 003°56'0 0.0 22.6
2014-Oct-23 07:52N 40°36' E 003°56'0 0.0 22.6
2014-Oct-23 07:04N 40°36' E 003°56'0 0.0 22.6
2014-Oct-23 06:38N 40°36' E 003°56'1 1.1 22.6
2014-Oct-23 05:32N 40°35' E 003°56'0 6.8 22.6
2014-Oct-23 05:29N 40°35' E 003°56'1 1.3 22.6
2014-Oct-23 04:59N 40°35' E 003°55'2 1.6 22.6
2014-Oct-23 03:52N 40°35' E 003°58'0 1.1
2014-Oct-23 03:48N 40°35' E 003°58'0 1.2 22.6
2014-Oct-23 03:27N 40°35' E 003°58'2 0.9 22.6
2014-Oct-23 01:48N 40°34' E 004°00'318.8 22.6
2014-Oct-23 01:39N 40°37' E 004°03'0 0.0 22.6
2014-Oct-22 22:57N 40°37' E 004°03'0 0.0 22.6
2014-Oct-22 22:09N 40°37' E 004°03'0 0.0 22.6
2014-Oct-22 22:05N 40°37' E 004°03'0 0.0 22.6
2014-Oct-22 21:18N 40°37' E 004°03'1 7.7 22.6
2014-Oct-22 21:14N 40°37' E 004°02'0 0.0 22.6
2014-Oct-22 20:28N 40°37' E 004°02'0 0.0 22.7
2014-Oct-22 20:23N 40°37' E 004°02'0 0.0 22.7
2014-Oct-22 19:37N 40°37' E 004°02'0 5.7 22.7
2014-Oct-22 19:32N 40°37' E 004°02'0 0.0 22.7
2014-Oct-22 19:19N 40°37' E 004°02'3 2.0 22.7
2014-Oct-22 17:40N 40°34' E 004°02'0 0.0 22.7
2014-Oct-22 17:23N 40°34' E 004°02'0 0.0 22.7
2014-Oct-22 17:09N 40°34' E 004°02'0 0.0 22.7
2014-Oct-22 15:38N 40°34' E 004°02'0 0.0 22.8
2014-Oct-22 15:30N 40°34' E 004°02'0 4.0 22.8
2014-Oct-22 15:23N 40°34' E 004°03'0 0.0 22.8
2014-Oct-22 15:05N 40°34' E 004°03'2 1.4 22.8
2014-Oct-22 13:47N 40°33' E 004°04'4 8.0 22.8
2014-Oct-22 13:19N 40°31' E 004°09'0 0.0 22.9
2014-Oct-22 11:42N 40°31' E 004°09'0 0.0
2014-Oct-22 11:36N 40°31' E 004°09'0 0.0
2014-Oct-22 11:35N 40°31' E 004°09'1 0.9 22.9
2014-Oct-22 10:47N 40°32' E 004°09'0 0.0 22.9
2014-Oct-22 10:01N 40°32' E 004°09'216.6 23.0
2014-Oct-22 09:54N 40°31' E 004°11'0 0.0 23.0
2014-Oct-22 09:06N 40°31' E 004°11'119.9 23.0
2014-Oct-22 09:03N 40°32' E 004°12'3 3.4 23.0
2014-Oct-22 08:12N 40°32' E 004°16'0 0.0 23.1
2014-Oct-22 05:59N 40°32' E 004°16'0 1.7 23.4
2014-Oct-22 05:43N 40°32' E 004°16'1 7.0 23.4
2014-Oct-22 05:34N 40°33' E 004°17'0 0.0 23.4
2014-Oct-22 04:17N 40°33' E 004°17'0 0.9 23.6
2014-Oct-22 03:55N 40°33' E 004°17'0 2.0 23.6
2014-Oct-22 03:48N 40°33' E 004°17'0 1.5 23.6
2014-Oct-22 03:38N 40°33' E 004°17'214.0 23.6
2014-Oct-22 03:31N 40°33' E 004°19'0 0.0 23.6
2014-Oct-22 01:59N 40°33' E 004°19'0 0.0 23.6
2014-Oct-22 01:55N 40°33' E 004°19'1 9.0 23.6
2014-Oct-22 01:48N 40°33' E 004°18'0 0.0 23.6
2014-Oct-22 00:16N 40°33' E 004°18'1 0.2 23.7
2014-Oct-21 21:36N 40°33' E 004°19'113.6 23.8
2014-Oct-21 21:32N 40°32' E 004°19'0 0.0 23.8
2014-Oct-21 20:55N 40°32' E 004°19'0 0.0 23.8
2014-Oct-21 20:50N 40°32' E 004°19'0 0.0 23.8
2014-Oct-21 20:46N 40°32' E 004°19'0 0.0 23.8
2014-Oct-21 20:00N 40°32' E 004°19'0 2.6 23.8
2014-Oct-21 19:53N 40°32' E 004°19'0 4.4 23.8
2014-Oct-21 19:48N 40°32' E 004°18'1 1.5 23.8
2014-Oct-21 19:11N 40°31' E 004°18'0 0.0 23.9
2014-Oct-21 18:19N 40°31' E 004°18'0 0.0 23.9
2014-Oct-21 18:11N 40°31' E 004°18'0 0.4 23.9
2014-Oct-21 17:46N 40°31' E 004°18'0 0.7 23.9
2014-Oct-21 17:21N 40°31' E 004°19'1 0.7 23.9
2014-Oct-21 16:05N 40°30' E 004°19'0 0.3 24.0
2014-Oct-21 15:40N 40°30' E 004°19'1 1.2 24.0
2014-Oct-21 15:14N 40°30' E 004°20'   24.1
Track history (hours):
 
Tides and Currents Weather Stations Pressure Air Temp Water Temp Dewpoint Dewpoint Depression Visibility Wind Speed Wind Dir Waves Ship Positions

Drifting buoy 62910

Last reported at 2014-Oct-31 15:07 UTC. Time now 2014-Oct-31 15:46 UTC.
Position N 41°12' E 004°25'.

Water temperature 22.0 ° C

Date/timePositionNaut miles runAvg speedWind from/ knotsBaromVisibWave heightAir tempDewpointWater temp
2014-Oct-31 15:07N 41°12' E 004°25'0 0.0 22.0
2014-Oct-31 13:40N 41°12' E 004°25'0 0.3 22.0
2014-Oct-31 13:26N 41°12' E 004°25'113.0 22.0
2014-Oct-31 13:21N 41°12' E 004°24'1 0.9 22.0
2014-Oct-31 11:51N 41°10' E 004°24'0 2.2 22.1
2014-Oct-31 11:44N 41°10' E 004°24'110.5
2014-Oct-31 11:40N 41°10' E 004°25'0 0.0 22.1
2014-Oct-31 11:03N 41°10' E 004°25'0 0.0 22.2
2014-Oct-31 10:10N 41°10' E 004°25'1 1.0 22.3
2014-Oct-31 09:21N 41°09' E 004°25'1 8.7 22.3
2014-Oct-31 09:17N 41°09' E 004°25'0 0.0 22.3
2014-Oct-31 08:31N 41°09' E 004°25'0 3.0 22.3
2014-Oct-31 08:28N 41°09' E 004°25'1 0.9 22.3
2014-Oct-31 07:24N 41°08' E 004°26'0 0.0 22.3
2014-Oct-31 07:15N 41°08' E 004°26'1 0.5 22.3
2014-Oct-31 05:42N 41°08' E 004°25'0 4.9 22.3
2014-Oct-31 05:36N 41°08' E 004°25'0 0.0 22.3
2014-Oct-31 04:04N 41°08' E 004°25'1 4.7 22.1
2014-Oct-31 03:57N 41°08' E 004°25'0 0.0 22.1
2014-Oct-31 03:54N 41°08' E 004°25'0 1.8 22.1
2014-Oct-31 03:38N 41°08' E 004°25'111.2 22.1
2014-Oct-31 03:33N 41°07' E 004°24'0 0.0 22.1
2014-Oct-31 01:57N 41°07' E 004°24'323.8 22.0
2014-Oct-31 01:50N 41°05' E 004°22'0 0.0 22.0
2014-Oct-31 00:13N 41°05' E 004°22'0 0.0 22.0
2014-Oct-30 21:55N 41°05' E 004°22'115.1 21.9
2014-Oct-30 21:50N 41°05' E 004°20'0 0.0 21.9
2014-Oct-30 21:09N 41°05' E 004°20'1 3.8
2014-Oct-30 20:59N 41°04' E 004°21'0 0.0 22.0
2014-Oct-30 20:13N 41°04' E 004°21'0 4.6 22.1
2014-Oct-30 20:07N 41°04' E 004°20'0 6.8 22.1
2014-Oct-30 20:04N 41°04' E 004°21'2 2.2 22.1
2014-Oct-30 19:18N 41°02' E 004°20'0 0.0 22.2
2014-Oct-30 18:27N 41°02' E 004°20'0 0.3 22.2
2014-Oct-30 17:23N 41°02' E 004°20'0 7.2 22.2
2014-Oct-30 17:20N 41°03' E 004°20'0 0.7 22.2
2014-Oct-30 16:49N 41°02' E 004°20'1 0.8 22.2
2014-Oct-30 15:39N 41°02' E 004°21'0 0.0 22.3
2014-Oct-30 15:37N 41°02' E 004°21'0 4.9 22.3
2014-Oct-30 15:32N 41°01' E 004°20'0 0.0 22.3
2014-Oct-30 15:18N 41°01' E 004°20'0 0.4 22.3
2014-Oct-30 14:00N 41°01' E 004°20'117.7 22.4
2014-Oct-30 13:58N 41°01' E 004°19'1 5.0 22.4
2014-Oct-30 13:51N 41°01' E 004°20'0 0.0 22.4
2014-Oct-30 13:39N 41°01' E 004°20'1 9.0 22.4
2014-Oct-30 13:32N 41°00' E 004°19'0 0.0 22.4
2014-Oct-30 12:09N 41°00' E 004°19'0 0.0 22.3
2014-Oct-30 11:54N 41°00' E 004°19'0 5.9
2014-Oct-30 11:51N 41°01' E 004°19'1 1.5 22.3
2014-Oct-30 11:21N 41°01' E 004°18'0 0.0 22.2
2014-Oct-30 10:35N 41°01' E 004°18'117.7 22.2
2014-Oct-30 10:31N 41°00' E 004°17'0 0.0 22.2
2014-Oct-30 09:47N 41°00' E 004°17'0 3.0 22.1
2014-Oct-30 09:44N 41°00' E 004°17'0 0.4 22.1
2014-Oct-30 08:54N 41°00' E 004°16'0 1.3 22.0
2014-Oct-30 08:49N 41°00' E 004°17'3 2.4 22.0
2014-Oct-30 07:37N 40°58' E 004°13'0 0.0 22.0
2014-Oct-30 06:19N 40°58' E 004°13'0 1.4 22.0
2014-Oct-30 06:01N 40°58' E 004°13'2 7.6 22.0
2014-Oct-30 05:49N 40°57' E 004°12'0 0.0 22.0
2014-Oct-30 05:43N 40°57' E 004°12'1 0.5 22.0
2014-Oct-30 04:20N 40°57' E 004°11'0 2.7 21.9
2014-Oct-30 04:10N 40°57' E 004°11'1 1.3 21.9
2014-Oct-30 03:47N 40°57' E 004°12'3 3.2 21.9
2014-Oct-30 02:56N 40°55' E 004°10'1 1.5 21.9
2014-Oct-30 02:04N 40°54' E 004°09'0 0.0 21.9
2014-Oct-30 00:29N 40°54' E 004°09'0 0.0
2014-Oct-30 00:25N 40°54' E 004°09'2 0.7 22.0
2014-Oct-29 22:16N 40°52' E 004°08'0 0.1 22.2
2014-Oct-29 21:23N 40°52' E 004°08'1 0.7 22.1
2014-Oct-29 20:39N 40°52' E 004°07'0 0.0 22.0
2014-Oct-29 20:36N 40°52' E 004°07'0 0.0 22.0
2014-Oct-29 20:29N 40°52' E 004°07'0 0.0 22.0
2014-Oct-29 20:25N 40°52' E 004°07'1 0.6 22.0
2014-Oct-29 18:59N 40°52' E 004°06'0 0.0 22.2
2014-Oct-29 18:55N 40°52' E 004°06'0 0.0 22.2
2014-Oct-29 17:48N 40°52' E 004°06'2 5.6 22.3
2014-Oct-29 17:30N 40°52' E 004°04'0 0.0 22.3
2014-Oct-29 17:14N 40°52' E 004°04'0 0.0
2014-Oct-29 16:07N 40°52' E 004°04'1 5.3 22.5
2014-Oct-29 15:51N 40°52' E 004°02'0 0.0 22.6
2014-Oct-29 15:44N 40°52' E 004°02'0 0.0 22.7
2014-Oct-29 15:27N 40°52' E 004°02'0 0.0 22.7
2014-Oct-29 14:28N 40°52' E 004°02'0 0.0
2014-Oct-29 14:09N 40°52' E 004°02'0 1.8 22.7
2014-Oct-29 14:05N 40°52' E 004°02'0 1.4 22.7
2014-Oct-29 13:49N 40°52' E 004°02'2 1.1 22.7
2014-Oct-29 12:02N 40°51' E 003°60'0 0.0 22.6
2014-Oct-29 11:44N 40°51' E 003°60'0 0.2 22.6
2014-Oct-29 10:55N 40°50' E 003°60'0 5.4 22.6
2014-Oct-29 10:53N 40°51' E 003°60'0 0.5 22.6
2014-Oct-29 10:02N 40°50' E 003°59'0 0.0 22.6
2014-Oct-29 09:12N 40°50' E 003°59'0 0.3 22.6
2014-Oct-29 08:19N 40°51' E 003°59'0 0.0
2014-Oct-29 06:45N 40°51' E 003°59'0 0.0 22.6
2014-Oct-29 06:30N 40°51' E 003°59'0 2.8
2014-Oct-29 06:26N 40°50' E 003°59'1 2.3 22.7
2014-Oct-29 06:03N 40°49' E 003°59'0 0.9 22.7
2014-Oct-29 06:00N 40°49' E 003°59'0 0.2 22.7
2014-Oct-29 05:07N 40°50' E 003°59'0 0.9 22.7
2014-Oct-29 04:45N 40°50' E 003°59'0 0.8 22.7
2014-Oct-29 04:21N 40°50' E 003°60'1 1.6 22.7
2014-Oct-29 03:58N 40°50' E 004°00'2 3.6 22.7
2014-Oct-29 03:28N 40°50' E 003°58'0 0.0 22.7
2014-Oct-29 02:36N 40°50' E 003°58'0 0.0 22.7
2014-Oct-29 02:19N 40°50' E 003°58'0 4.7 22.7
2014-Oct-29 02:13N 40°51' E 003°58'0 0.0 22.7
2014-Oct-29 00:38N 40°51' E 003°58'1 0.4 22.7
2014-Oct-28 22:36N 40°51' E 003°57'0 0.3 22.7
2014-Oct-28 21:50N 40°51' E 003°57'1 3.8 22.7
2014-Oct-28 21:41N 40°51' E 003°56'0 0.0 22.7
2014-Oct-28 20:59N 40°51' E 003°56'0 0.0 22.7
2014-Oct-28 20:50N 40°51' E 003°56'0 0.0 22.7
2014-Oct-28 20:06N 40°51' E 003°56'1 7.8 22.7
2014-Oct-28 20:01N 40°52' E 003°55'0 0.0 22.7
2014-Oct-28 19:29N 40°52' E 003°55'1 3.9 22.7
2014-Oct-28 19:15N 40°52' E 003°55'0 2.9 22.7
2014-Oct-28 19:09N 40°53' E 003°55'0 0.0 22.7
2014-Oct-28 18:09N 40°53' E 003°55'113.3 22.7
2014-Oct-28 18:06N 40°52' E 003°55'0 2.2 22.7
2014-Oct-28 17:53N 40°52' E 003°54'1 2.6 22.7
2014-Oct-28 17:41N 40°52' E 003°54'0 0.0 22.7
2014-Oct-28 16:34N 40°52' E 003°54'0 0.0 22.7
2014-Oct-28 16:00N 40°52' E 003°54'1 0.6 22.7
2014-Oct-28 14:51N 40°51' E 003°53'1 2.1 22.8
2014-Oct-28 14:20N 40°51' E 003°52'0 0.0 22.8
2014-Oct-28 14:14N 40°51' E 003°52'0 0.3 22.8
2014-Oct-28 14:00N 40°51' E 003°52'0 0.3 22.8
2014-Oct-28 12:18N 40°51' E 003°53'0 3.2 22.7
2014-Oct-28 12:11N 40°51' E 003°52'0 0.0 22.7
2014-Oct-28 11:12N 40°51' E 003°52'0 0.3 22.7
2014-Oct-28 10:25N 40°52' E 003°52'0 0.0 22.7
2014-Oct-28 09:33N 40°52' E 003°52'0 0.5 22.6
2014-Oct-28 08:46N 40°52' E 003°52'0 0.0 22.6
2014-Oct-28 08:39N 40°52' E 003°52'0 0.0 22.7
2014-Oct-28 07:49N 40°52' E 003°52'0 0.0 22.6
2014-Oct-28 07:16N 40°52' E 003°52'0 0.0 22.6
2014-Oct-28 06:53N 40°52' E 003°52'0 3.8 22.6
2014-Oct-28 06:49N 40°52' E 003°52'0 0.2 22.6
2014-Oct-28 06:12N 40°52' E 003°52'0 1.3 22.6
2014-Oct-28 06:07N 40°52' E 003°52'0 0.0 22.6
2014-Oct-28 05:37N 40°52' E 003°52'0 0.0 22.6
2014-Oct-28 05:08N 40°52' E 003°52'1 1.0 22.6
2014-Oct-28 04:28N 40°52' E 003°51'0 5.6 22.6
2014-Oct-28 04:24N 40°52' E 003°51'0 0.5 22.6
2014-Oct-28 04:08N 40°52' E 003°51'1 4.6 22.7
2014-Oct-28 04:00N 40°52' E 003°50'0 0.0 22.6
2014-Oct-28 03:26N 40°52' E 003°50'0 0.0 22.7
2014-Oct-28 02:45N 40°52' E 003°50'0 0.0 22.7
2014-Oct-28 02:33N 40°52' E 003°50'0 2.7 22.7
2014-Oct-28 02:29N 40°52' E 003°50'2 1.3 22.7
2014-Oct-28 00:49N 40°51' E 003°48'0 0.0 22.7
2014-Oct-27 22:56N 40°51' E 003°48'0 0.0 22.7
2014-Oct-27 22:03N 40°51' E 003°48'0 0.0 22.7
2014-Oct-27 21:19N 40°51' E 003°48'0 1.3 22.7
2014-Oct-27 21:08N 40°51' E 003°48'0 0.0 22.7
2014-Oct-27 20:24N 40°51' E 003°48'0 0.0 22.7
2014-Oct-27 20:18N 40°51' E 003°48'0 0.2 22.7
2014-Oct-27 19:59N 40°51' E 003°48'0 1.2 22.7
2014-Oct-27 19:34N 40°51' E 003°47'1 8.7 22.7
2014-Oct-27 19:29N 40°50' E 003°48'0 0.0 22.7
2014-Oct-27 18:36N 40°50' E 003°48'0 0.0 22.7
2014-Oct-27 18:22N 40°50' E 003°48'0 0.0 22.7
2014-Oct-27 17:52N 40°50' E 003°48'0 0.4 22.7
2014-Oct-27 16:57N 40°50' E 003°48'122.9 22.7
2014-Oct-27 16:55N 40°51' E 003°47'1 0.9 22.7
2014-Oct-27 16:09N 40°50' E 003°48'0 0.1 22.7
2014-Oct-27 15:18N 40°50' E 003°48'0 0.4 22.7
2014-Oct-27 14:29N 40°50' E 003°47'0 2.3
2014-Oct-27 14:25N 40°50' E 003°47'0 0.7 22.8
2014-Oct-27 14:09N 40°50' E 003°48'0 0.2 22.8
2014-Oct-27 12:30N 40°51' E 003°47'0 0.0 22.8
2014-Oct-27 12:27N 40°51' E 003°47'0 0.4 22.8
2014-Oct-27 11:34N 40°51' E 003°47'0 0.5 22.8
2014-Oct-27 10:46N 40°51' E 003°46'0 0.0 22.8
2014-Oct-27 10:39N 40°51' E 003°46'0 0.0 22.8
2014-Oct-27 09:57N 40°51' E 003°46'0 0.5 22.7
2014-Oct-27 09:02N 40°51' E 003°46'1 0.6 22.7
2014-Oct-27 08:09N 40°51' E 003°45'0 0.0 22.7
2014-Oct-27 07:16N 40°51' E 003°45'1 6.6 22.7
2014-Oct-27 07:09N 40°51' E 003°45'0 0.0 22.7
2014-Oct-27 06:23N 40°51' E 003°45'0 0.0 22.7
2014-Oct-27 06:19N 40°51' E 003°45'0 0.0 22.7
2014-Oct-27 06:12N 40°51' E 003°45'1 0.9 22.6
2014-Oct-27 05:32N 40°50' E 003°45'0 0.0 22.6
2014-Oct-27 04:47N 40°50' E 003°45'0 0.0 22.6
2014-Oct-27 04:44N 40°50' E 003°45'1 3.1 22.6
2014-Oct-27 04:32N 40°50' E 003°44'0 0.7 22.6
2014-Oct-27 04:19N 40°50' E 003°44'0 0.1 22.6
2014-Oct-27 03:01N 40°50' E 003°44'1 2.3 22.5
2014-Oct-27 02:47N 40°50' E 003°45'0 0.0 22.5
2014-Oct-27 02:42N 40°50' E 003°45'1 5.2 22.5
2014-Oct-27 02:33N 40°49' E 003°45'0 0.0 22.5
2014-Oct-27 01:00N 40°49' E 003°45'1 0.4 22.5
2014-Oct-26 22:24N 40°49' E 003°46'1 1.4 22.5
2014-Oct-26 21:33N 40°50' E 003°47'0 0.0 22.6
2014-Oct-26 20:45N 40°50' E 003°47'0 0.0 22.6
2014-Oct-26 20:40N 40°50' E 003°47'0 0.0 22.6
2014-Oct-26 20:27N 40°50' E 003°47'0 0.0 22.6
2014-Oct-26 19:56N 40°50' E 003°47'111.8 22.6
2014-Oct-26 19:49N 40°49' E 003°48'0 0.0 22.6
2014-Oct-26 19:10N 40°49' E 003°48'0 0.0 22.7
2014-Oct-26 18:54N 40°49' E 003°48'0 0.0 22.7
2014-Oct-26 18:50N 40°49' E 003°48'1 1.0 22.7
2014-Oct-26 18:15N 40°49' E 003°47'0 0.0 22.7
2014-Oct-26 17:24N 40°49' E 003°47'142.4 22.8
2014-Oct-26 17:22N 40°50' E 003°45'0 0.0 22.8
2014-Oct-26 17:11N 40°50' E 003°45'1 1.5 22.8
2014-Oct-26 16:24N 40°50' E 003°47'0 0.6 22.8
2014-Oct-26 15:41N 40°50' E 003°46'0 0.4 22.9
2014-Oct-26 14:39N 40°50' E 003°46'0 1.4 22.9
2014-Oct-26 14:20N 40°50' E 003°46'1 0.7 22.9
2014-Oct-26 12:45N 40°50' E 003°45'0 0.0 22.7
2014-Oct-26 12:43N 40°50' E 003°45'0 0.5 22.7
2014-Oct-26 11:53N 40°50' E 003°44'1 1.3 22.7
2014-Oct-26 11:07N 40°49' E 003°44'0 0.0 22.6
2014-Oct-26 10:59N 40°49' E 003°44'0 0.0 22.6
2014-Oct-26 10:55N 40°49' E 003°44'0 0.0 22.6
2014-Oct-26 10:18N 40°49' E 003°44'0 0.0 22.6
2014-Oct-26 10:14N 40°49' E 003°44'0 0.2 22.6
2014-Oct-26 09:27N 40°49' E 003°45'0 0.0 22.6
2014-Oct-26 09:23N 40°49' E 003°45'0 0.0 22.6
2014-Oct-26 09:18N 40°49' E 003°45'0 0.0 22.6
2014-Oct-26 08:37N 40°49' E 003°45'0 1.3 22.6
2014-Oct-26 08:32N 40°49' E 003°45'1 0.7 22.6
2014-Oct-26 06:32N 40°48' E 003°46'0 0.0 22.6
2014-Oct-26 06:04N 40°48' E 003°46'0 1.4 22.6
2014-Oct-26 06:00N 40°48' E 003°46'0 0.5 22.6
2014-Oct-26 05:00N 40°47' E 003°46'1 4.4 22.6
2014-Oct-26 04:53N 40°47' E 003°47'1 6.9 22.6
2014-Oct-26 04:48N 40°47' E 003°48'0 0.6 22.6
2014-Oct-26 04:30N 40°47' E 003°48'0 0.0 22.7
2014-Oct-26 04:19N 40°47' E 003°48'1 0.6 22.7
2014-Oct-26 03:23N 40°47' E 003°48'0 0.0
2014-Oct-26 03:16N 40°47' E 003°48'0 4.3 22.8
2014-Oct-26 03:10N 40°48' E 003°48'0 1.2 22.8
2014-Oct-26 02:56N 40°47' E 003°48'0 0.0 22.8
2014-Oct-26 02:53N 40°47' E 003°48'1 0.5 22.8
2014-Oct-26 01:16N 40°48' E 003°49'0 0.0 22.9
2014-Oct-26 01:12N 40°48' E 003°49'1 0.5 22.9
2014-Oct-25 22:45N 40°49' E 003°50'0 0.0 22.9
2014-Oct-25 22:00N 40°49' E 003°50'1 4.0 22.9
2014-Oct-25 21:52N 40°49' E 003°49'0 0.0 22.9
2014-Oct-25 21:49N 40°49' E 003°49'0 0.0 22.9
2014-Oct-25 21:12N 40°49' E 003°49'0 0.0 22.9
2014-Oct-25 21:03N 40°49' E 003°49'0 0.0 22.9
2014-Oct-25 20:19N 40°49' E 003°49'0 0.7 22.8
2014-Oct-25 20:08N 40°49' E 003°49'0 0.0 22.8
2014-Oct-25 19:29N 40°49' E 003°49'0 0.9 22.8
2014-Oct-25 19:24N 40°49' E 003°49'1 0.7 22.8
2014-Oct-25 18:33N 40°49' E 003°48'0 0.0
2014-Oct-25 17:47N 40°49' E 003°48'0 2.7
2014-Oct-25 17:43N 40°49' E 003°48'0 0.3 22.7
2014-Oct-25 16:36N 40°49' E 003°48'0 3.0 22.7
2014-Oct-25 16:33N 40°49' E 003°48'1 2.4 22.7
2014-Oct-25 16:04N 40°48' E 003°47'1 0.6 22.8
2014-Oct-25 14:56N 40°47' E 003°47'0 0.3 23.0
2014-Oct-25 14:34N 40°47' E 003°47'1 0.7 23.0
2014-Oct-25 12:55N 40°46' E 003°48'0 0.0 23.0
2014-Oct-25 12:48N 40°46' E 003°48'2 3.1 23.0
2014-Oct-25 12:13N 40°45' E 003°49'0 0.0 22.9
2014-Oct-25 11:25N 40°45' E 003°49'0 0.0 22.8
2014-Oct-25 11:06N 40°45' E 003°49'0 0.0 22.7
2014-Oct-25 10:36N 40°45' E 003°49'1 1.6 22.7
2014-Oct-25 09:46N 40°45' E 003°51'0 0.0 22.7
2014-Oct-25 09:39N 40°45' E 003°51'0 0.0 22.6
2014-Oct-25 08:53N 40°45' E 003°51'1 0.5 22.6
2014-Oct-25 07:14N 40°45' E 003°52'1 1.3 22.6
2014-Oct-25 06:44N 40°45' E 003°53'0 0.5 22.6
2014-Oct-25 06:27N 40°45' E 003°52'0 0.0 22.6
2014-Oct-25 06:23N 40°45' E 003°52'1 0.9 22.6
2014-Oct-25 05:32N 40°46' E 003°52'0 0.0 22.6
2014-Oct-25 05:09N 40°46' E 003°52'0 0.0 22.6
2014-Oct-25 05:05N 40°46' E 003°52'0 0.8 22.6
2014-Oct-25 04:44N 40°46' E 003°53'111.5 22.7
2014-Oct-25 04:41N 40°47' E 003°53'0 0.0 22.7
2014-Oct-25 03:53N 40°47' E 003°53'0 1.1 22.7
2014-Oct-25 03:28N 40°47' E 003°52'0 4.0
2014-Oct-25 03:25N 40°47' E 003°52'0 1.4 22.7
2014-Oct-25 03:07N 40°47' E 003°53'213.0 22.7
2014-Oct-25 03:00N 40°47' E 003°51'0 0.0 22.7
2014-Oct-25 01:26N 40°47' E 003°51'1 0.2 22.7
2014-Oct-24 22:21N 40°47' E 003°50'538.9 22.7
2014-Oct-24 22:14N 40°42' E 003°51'0 0.0 22.7
2014-Oct-24 21:31N 40°42' E 003°51'0 0.0 22.7
2014-Oct-24 21:23N 40°42' E 003°51'0 0.0 22.7
2014-Oct-24 19:51N 40°42' E 003°51'0 0.0 22.7
2014-Oct-24 19:42N 40°42' E 003°51'0 0.0 22.7
2014-Oct-24 18:56N 40°42' E 003°51'0 0.0 22.7
2014-Oct-24 18:12N 40°42' E 003°51'0 0.0 22.7
2014-Oct-24 16:45N 40°42' E 003°51'0 2.6 22.7
2014-Oct-24 16:36N 40°42' E 003°51'112.8
2014-Oct-24 16:31N 40°42' E 003°53'0 0.0 22.7
2014-Oct-24 15:06N 40°42' E 003°53'1 3.8 22.7
2014-Oct-24 14:49N 40°42' E 003°53'0 2.2
2014-Oct-24 14:45N 40°42' E 003°53'1 0.4 22.7
2014-Oct-24 13:04N 40°43' E 003°54'0 3.3 22.7
2014-Oct-24 12:57N 40°43' E 003°55'1 1.0 22.7
2014-Oct-24 11:43N 40°44' E 003°54'0 0.0 22.7
2014-Oct-24 11:22N 40°44' E 003°54'1 6.0 22.7
2014-Oct-24 11:17N 40°44' E 003°54'0 0.0 22.7
2014-Oct-24 10:52N 40°44' E 003°54'0 0.1 22.7
2014-Oct-24 10:08N 40°44' E 003°54'0 0.0 22.6
2014-Oct-24 10:01N 40°44' E 003°54'2 2.0
2014-Oct-24 09:15N 40°44' E 003°52'0 0.0 22.6
2014-Oct-24 08:24N 40°44' E 003°52'0 0.2 22.6
2014-Oct-24 06:07N 40°43' E 003°53'2 2.1 22.6
2014-Oct-24 05:14N 40°42' E 003°52'0 0.0 22.6
2014-Oct-24 05:06N 40°42' E 003°52'0 0.0 22.6
2014-Oct-24 04:52N 40°42' E 003°52'0 0.0 22.6
2014-Oct-24 04:25N 40°42' E 003°52'1 0.6 22.6
2014-Oct-24 03:34N 40°42' E 003°51'2 4.9 22.6
2014-Oct-24 03:14N 40°41' E 003°53'0 0.0 22.6
2014-Oct-24 03:09N 40°41' E 003°53'0 0.0
2014-Oct-24 01:37N 40°41' E 003°53'0 0.0 22.6
2014-Oct-24 01:34N 40°41' E 003°53'2 0.8 22.6
2014-Oct-23 22:41N 40°38' E 003°54'219.1 22.6
2014-Oct-23 22:35N 40°38' E 003°56'0 0.0 22.6
2014-Oct-23 21:48N 40°38' E 003°56'0 0.0 22.6
2014-Oct-23 20:58N 40°38' E 003°56'0 0.9 22.6
2014-Oct-23 20:53N 40°38' E 003°56'0 0.0 22.6
2014-Oct-23 20:26N 40°38' E 003°56'1 6.3 22.6
2014-Oct-23 20:12N 40°39' E 003°58'0 0.0 22.6
2014-Oct-23 20:03N 40°39' E 003°58'0 0.0 22.6
2014-Oct-23 19:16N 40°39' E 003°58'0 0.0 22.6
2014-Oct-23 19:12N 40°39' E 003°58'0 0.1 22.6
2014-Oct-23 18:46N 40°39' E 003°58'1 3.6 22.6
2014-Oct-23 18:31N 40°39' E 003°58'0 0.0 22.6
2014-Oct-23 17:10N 40°39' E 003°58'2 7.4 22.6
2014-Oct-23 16:54N 40°41' E 003°57'0 0.2 22.6
2014-Oct-23 15:15N 40°41' E 003°57'2 6.7 22.6
2014-Oct-23 14:54N 40°39' E 003°55'0 0.0 22.6
2014-Oct-23 13:31N 40°39' E 003°55'0 0.0 22.6
2014-Oct-23 13:15N 40°39' E 003°55'0 0.0 22.6
2014-Oct-23 11:29N 40°39' E 003°55'3 9.9 22.6
2014-Oct-23 11:13N 40°37' E 003°55'0 0.0 22.6
2014-Oct-23 10:29N 40°37' E 003°55'0 0.0 22.6
2014-Oct-23 09:36N 40°37' E 003°55'0 0.0 22.6
2014-Oct-23 09:33N 40°37' E 003°55'1 1.2 22.6
2014-Oct-23 08:43N 40°36' E 003°56'0 0.0 22.6
2014-Oct-23 07:52N 40°36' E 003°56'0 0.0 22.6
2014-Oct-23 07:04N 40°36' E 003°56'0 0.0 22.6
2014-Oct-23 06:38N 40°36' E 003°56'1 1.1 22.6
2014-Oct-23 05:32N 40°35' E 003°56'0 6.8 22.6
2014-Oct-23 05:29N 40°35' E 003°56'1 1.3 22.6
2014-Oct-23 04:59N 40°35' E 003°55'2 1.6 22.6
2014-Oct-23 03:52N 40°35' E 003°58'0 1.1
2014-Oct-23 03:48N 40°35' E 003°58'0 1.2 22.6
2014-Oct-23 03:27N 40°35' E 003°58'2 0.9 22.6
2014-Oct-23 01:48N 40°34' E 004°00'318.8 22.6
2014-Oct-23 01:39N 40°37' E 004°03'0 0.0 22.6
2014-Oct-22 22:57N 40°37' E 004°03'0 0.0 22.6
2014-Oct-22 22:09N 40°37' E 004°03'0 0.0 22.6
2014-Oct-22 22:05N 40°37' E 004°03'0 0.0 22.6
2014-Oct-22 21:18N 40°37' E 004°03'1 7.7 22.6
2014-Oct-22 21:14N 40°37' E 004°02'0 0.0 22.6
2014-Oct-22 20:28N 40°37' E 004°02'0 0.0 22.7
2014-Oct-22 20:23N 40°37' E 004°02'0 0.0 22.7
2014-Oct-22 19:37N 40°37' E 004°02'0 5.7 22.7
2014-Oct-22 19:32N 40°37' E 004°02'0 0.0 22.7
2014-Oct-22 19:19N 40°37' E 004°02'3 2.0 22.7
2014-Oct-22 17:40N 40°34' E 004°02'0 0.0 22.7
2014-Oct-22 17:23N 40°34' E 004°02'0 0.0 22.7
2014-Oct-22 17:09N 40°34' E 004°02'0 0.0 22.7
2014-Oct-22 15:38N 40°34' E 004°02'0 0.0 22.8
2014-Oct-22 15:30N 40°34' E 004°02'0 4.0 22.8
2014-Oct-22 15:23N 40°34' E 004°03'0 0.0 22.8
2014-Oct-22 15:05N 40°34' E 004°03'2 1.4 22.8
2014-Oct-22 13:47N 40°33' E 004°04'4 8.0 22.8
2014-Oct-22 13:19N 40°31' E 004°09'0 0.0 22.9
2014-Oct-22 11:42N 40°31' E 004°09'0 0.0
2014-Oct-22 11:36N 40°31' E 004°09'0 0.0
2014-Oct-22 11:35N 40°31' E 004°09'1 0.9 22.9
2014-Oct-22 10:47N 40°32' E 004°09'0 0.0 22.9
2014-Oct-22 10:01N 40°32' E 004°09'216.6 23.0
2014-Oct-22 09:54N 40°31' E 004°11'0 0.0 23.0
2014-Oct-22 09:06N 40°31' E 004°11'119.9 23.0
2014-Oct-22 09:03N 40°32' E 004°12'3 3.4 23.0
2014-Oct-22 08:12N 40°32' E 004°16'0 0.0 23.1
2014-Oct-22 05:59N 40°32' E 004°16'0 1.7 23.4
2014-Oct-22 05:43N 40°32' E 004°16'1 7.0 23.4
2014-Oct-22 05:34N 40°33' E 004°17'0 0.0 23.4
2014-Oct-22 04:17N 40°33' E 004°17'0 0.9 23.6
2014-Oct-22 03:55N 40°33' E 004°17'0 2.0 23.6
2014-Oct-22 03:48N 40°33' E 004°17'0 1.5 23.6
2014-Oct-22 03:38N 40°33' E 004°17'214.0 23.6
2014-Oct-22 03:31N 40°33' E 004°19'0 0.0 23.6
2014-Oct-22 01:59N 40°33' E 004°19'0 0.0 23.6
2014-Oct-22 01:55N 40°33' E 004°19'1 9.0 23.6
2014-Oct-22 01:48N 40°33' E 004°18'0 0.0 23.6
2014-Oct-22 00:16N 40°33' E 004°18'1 0.2 23.7
2014-Oct-21 21:36N 40°33' E 004°19'113.6 23.8
2014-Oct-21 21:32N 40°32' E 004°19'0 0.0 23.8
2014-Oct-21 20:55N 40°32' E 004°19'0 0.0 23.8
2014-Oct-21 20:50N 40°32' E 004°19'0 0.0 23.8
2014-Oct-21 20:46N 40°32' E 004°19'0 0.0 23.8
2014-Oct-21 20:00N 40°32' E 004°19'0 2.6 23.8
2014-Oct-21 19:53N 40°32' E 004°19'0 4.4 23.8
2014-Oct-21 19:48N 40°32' E 004°18'1 1.5 23.8
2014-Oct-21 19:11N 40°31' E 004°18'0 0.0 23.9
2014-Oct-21 18:19N 40°31' E 004°18'0 0.0 23.9
2014-Oct-21 18:11N 40°31' E 004°18'0 0.4 23.9
2014-Oct-21 17:46N 40°31' E 004°18'0 0.7 23.9
2014-Oct-21 17:21N 40°31' E 004°19'1 0.7 23.9
2014-Oct-21 16:05N 40°30' E 004°19'0 0.3 24.0
2014-Oct-21 15:40N 40°30' E 004°19'1 1.2 24.0
2014-Oct-21 15:14N 40°30' E 004°20'   24.1

Dump ship's entire track history